createdAt,value
2017-10-26T00:01:09.717Z,101782.20
2017-10-26T00:03:37.247Z,101794.67
2017-10-26T00:06:05.541Z,101789.87
2017-10-26T00:08:33.862Z,101796.35
2017-10-26T00:11:03.072Z,101800.78
2017-10-26T00:13:32.050Z,101792.63
2017-10-26T00:16:01.018Z,101786.09
2017-10-26T00:18:28.546Z,101778.27
2017-10-26T00:20:56.069Z,101782.50
2017-10-26T00:23:24.501Z,101783.47
2017-10-26T00:25:52.029Z,101802.77
2017-10-26T00:28:19.561Z,101817.73
2017-10-26T00:30:47.994Z,101811.41
2017-10-26T00:33:16.341Z,101813.91
2017-10-26T00:35:44.676Z,101817.14
2017-10-26T00:38:12.251Z,101810.63
2017-10-26T00:40:39.781Z,101802.17
2017-10-26T00:43:08.100Z,101809.48
2017-10-26T00:45:36.404Z,101819.90
2017-10-26T00:48:04.619Z,101825.36
2017-10-26T00:50:33.661Z,101831.69
2017-10-26T00:53:01.188Z,101837.89
2017-10-26T00:55:28.752Z,101833.00
2017-10-26T00:57:57.180Z,101834.47
2017-10-26T01:00:25.626Z,101837.03
2017-10-26T01:02:53.967Z,101826.16
2017-10-26T01:05:21.489Z,101831.91
2017-10-26T01:07:49.836Z,101836.16
2017-10-26T01:10:17.360Z,101827.97
2017-10-26T01:12:44.919Z,101823.26
2017-10-26T01:15:12.448Z,101819.47
2017-10-26T01:17:40.024Z,101813.95
2017-10-26T01:20:07.553Z,101817.67
2017-10-26T01:22:35.080Z,101834.40
2017-10-26T01:25:03.428Z,101831.38
2017-10-26T01:27:31.294Z,101825.42
2017-10-26T01:30:00.792Z,101823.23
2017-10-26T01:32:28.317Z,101832.22
2017-10-26T01:34:55.848Z,101827.36
2017-10-26T01:37:24.208Z,101822.95
2017-10-26T01:39:51.743Z,101823.46
2017-10-26T01:42:19.270Z,101828.09
2017-10-26T01:44:46.808Z,101829.59
2017-10-26T01:47:14.472Z,101826.53
2017-10-26T01:49:41.996Z,101826.78
2017-10-26T01:52:09.525Z,101825.36
2017-10-26T01:54:37.097Z,101839.30
2017-10-26T01:57:04.637Z,101834.56
2017-10-26T01:59:32.885Z,101835.38
2017-10-26T02:02:00.411Z,101839.38
2017-10-26T02:04:27.955Z,101836.05
2017-10-26T02:06:55.485Z,101835.41
2017-10-26T02:09:23.796Z,101830.58
2017-10-26T02:11:51.328Z,101826.67
2017-10-26T02:14:18.859Z,101825.63
2017-10-26T02:16:46.442Z,101829.56
2017-10-26T02:19:13.975Z,101826.13
2017-10-26T02:21:41.509Z,101838.63
2017-10-26T02:24:09.044Z,101837.16
2017-10-26T02:26:36.573Z,101837.19
2017-10-26T02:29:15.967Z,101836.77
2017-10-26T02:31:43.514Z,101833.92
2017-10-26T02:34:11.056Z,101826.73
2017-10-26T02:36:38.589Z,101828.52
2017-10-26T02:39:06.117Z,101830.07
2017-10-26T02:41:33.648Z,101825.36
2017-10-26T02:44:01.427Z,101808.02
2017-10-26T02:46:28.961Z,101811.02
2017-10-26T02:48:56.505Z,101808.02
2017-10-26T02:51:24.057Z,101812.19
2017-10-26T02:53:51.591Z,101808.86
2017-10-26T02:56:19.126Z,101816.30
2017-10-26T02:58:46.689Z,101809.17
2017-10-26T03:01:14.219Z,101806.41
2017-10-26T03:03:41.755Z,101808.33
2017-10-26T03:06:09.277Z,101814.34
2017-10-26T03:08:36.812Z,101818.07
2017-10-26T03:11:04.355Z,101815.17
2017-10-26T03:13:32.575Z,101810.91
2017-10-26T03:16:00.107Z,101811.61
2017-10-26T03:18:27.640Z,101814.34
2017-10-26T03:20:55.209Z,101828.70
2017-10-26T03:23:22.736Z,101828.55
2017-10-26T03:25:50.262Z,101827.39
2017-10-26T03:28:17.789Z,101813.56
2017-10-26T03:30:45.317Z,101812.55
2017-10-26T03:33:12.843Z,101807.00
2017-10-26T03:35:40.412Z,101800.83
2017-10-26T03:38:07.948Z,101794.75
2017-10-26T03:40:35.481Z,101802.16
2017-10-26T03:43:03.668Z,101808.18
2017-10-26T03:45:31.729Z,101793.13
2017-10-26T03:48:00.284Z,101786.08
2017-10-26T03:50:27.816Z,101792.95
2017-10-26T03:52:55.349Z,101788.58
2017-10-26T03:55:22.885Z,101787.91
2017-10-26T03:57:51.286Z,101797.33
2017-10-26T04:00:18.821Z,101795.19
2017-10-26T04:02:46.346Z,101794.83
2017-10-26T04:05:13.880Z,101793.67
2017-10-26T04:07:41.418Z,101801.50
2017-10-26T04:10:08.944Z,101810.90
2017-10-26T04:12:36.480Z,101816.47
2017-10-26T04:15:04.021Z,101820.22
2017-10-26T04:17:32.023Z,101824.55
2017-10-26T04:19:59.612Z,101801.72
2017-10-26T04:22:27.147Z,101798.59
2017-10-26T04:24:54.675Z,101798.11
2017-10-26T04:27:22.208Z,101815.08
2017-10-26T04:29:49.738Z,101830.67
2017-10-26T04:32:17.270Z,101848.08
2017-10-26T04:34:44.805Z,101841.06
2017-10-26T04:37:12.340Z,101825.14
2017-10-26T04:39:39.877Z,101811.08
2017-10-26T04:42:07.456Z,101834.01
2017-10-26T04:44:34.992Z,101855.59
2017-10-26T04:47:03.124Z,101841.73
2017-10-26T04:49:32.276Z,101824.79
2017-10-26T04:51:59.808Z,101822.80
2017-10-26T04:54:27.348Z,101822.66
2017-10-26T04:56:54.881Z,101808.77
2017-10-26T04:59:22.412Z,101818.45
2017-10-26T05:01:49.958Z,101834.89
2017-10-26T05:04:17.488Z,101830.28
2017-10-26T05:06:45.021Z,101822.06
2017-10-26T05:09:12.593Z,101817.63
2017-10-26T05:11:40.125Z,101811.81
2017-10-26T05:14:07.660Z,101811.31
2017-10-26T05:16:35.217Z,101816.67
2017-10-26T05:19:03.558Z,101811.70
2017-10-26T05:21:31.149Z,101812.63
2017-10-26T05:23:58.687Z,101812.63
2017-10-26T05:26:26.249Z,101810.72
2017-10-26T05:28:53.781Z,101809.63
2017-10-26T05:31:21.315Z,101795.27
2017-10-26T05:33:48.847Z,101795.58
2017-10-26T05:36:16.416Z,101806.33
2017-10-26T05:38:43.948Z,101818.41
2017-10-26T05:41:11.499Z,101804.77
2017-10-26T05:43:39.028Z,101808.92
2017-10-26T05:46:06.556Z,101809.41
2017-10-26T05:48:34.131Z,101802.25
2017-10-26T05:51:01.673Z,101811.61
2017-10-26T05:53:29.204Z,101814.20
2017-10-26T05:55:56.741Z,101822.34
2017-10-26T05:58:24.276Z,101826.00
2017-10-26T06:00:51.808Z,101827.09
2017-10-26T06:03:19.396Z,101838.26
2017-10-26T06:05:46.929Z,101825.00
2017-10-26T06:08:14.464Z,101819.80
2017-10-26T06:10:43.029Z,101814.05
2017-10-26T06:13:10.560Z,101801.58
2017-10-26T06:15:38.137Z,101783.33
2017-10-26T06:18:05.671Z,101775.78
2017-10-26T06:20:33.201Z,101781.91
2017-10-26T06:23:01.512Z,101778.08
2017-10-26T06:25:29.824Z,101792.86
2017-10-26T06:27:57.366Z,101794.72
2017-10-26T06:30:24.892Z,101790.09
2017-10-26T06:32:52.502Z,101814.13
2017-10-26T06:35:20.953Z,101819.00
2017-10-26T06:37:48.485Z,101816.73
2017-10-26T06:40:17.844Z,101828.37
2017-10-26T06:42:45.380Z,101845.42
2017-10-26T06:45:14.546Z,101836.87
2017-10-26T06:47:42.558Z,101842.30
2017-10-26T06:50:10.100Z,101839.42
2017-10-26T06:52:37.642Z,101855.48
2017-10-26T06:55:05.210Z,101859.63
2017-10-26T06:57:32.787Z,101872.14
2017-10-26T07:00:00.319Z,101872.14
2017-10-26T07:02:27.856Z,101859.92
2017-10-26T07:04:56.280Z,101859.97
2017-10-26T07:07:23.818Z,101876.21
2017-10-26T07:09:51.352Z,101880.40
2017-10-26T07:12:18.933Z,101872.69
2017-10-26T07:14:46.469Z,101838.83
2017-10-26T07:17:14.000Z,101831.48
2017-10-26T07:19:42.198Z,101838.70
2017-10-26T07:22:09.801Z,101847.48
2017-10-26T07:24:37.341Z,101845.97
2017-10-26T07:27:04.886Z,101849.59
2017-10-26T07:29:32.420Z,101834.80
2017-10-26T07:32:00.050Z,101798.96
2017-10-26T07:34:28.526Z,101791.98
2017-10-26T07:36:56.861Z,101821.98
2017-10-26T07:39:24.444Z,101817.42
2017-10-26T07:41:52.888Z,101818.00
2017-10-26T07:44:20.424Z,101820.86
2017-10-26T07:46:47.953Z,101824.45
2017-10-26T07:49:15.544Z,101807.21
2017-10-26T07:51:43.914Z,101815.75
2017-10-26T07:54:12.216Z,101808.59
2017-10-26T07:56:41.119Z,101803.33
2017-10-26T07:59:08.644Z,101804.13
2017-10-26T08:01:37.066Z,101801.02
2017-10-26T08:04:04.604Z,101824.45
2017-10-26T08:06:32.968Z,101822.44
2017-10-26T08:09:01.291Z,101813.53
2017-10-26T08:11:28.825Z,101813.17
2017-10-26T08:13:57.073Z,101821.22
2017-10-26T08:16:24.636Z,101837.47
2017-10-26T08:18:53.060Z,101820.48
2017-10-26T08:21:20.681Z,101800.66
2017-10-26T08:23:48.209Z,101808.39
2017-10-26T08:26:15.767Z,101801.75
2017-10-26T08:28:43.297Z,101787.98
2017-10-26T08:31:10.831Z,101794.20
2017-10-26T08:33:38.473Z,101790.12
2017-10-26T08:36:06.969Z,101783.64
2017-10-26T08:38:34.503Z,101780.67
2017-10-26T08:41:02.034Z,101776.02
2017-10-26T08:43:29.644Z,101776.41
2017-10-26T08:45:57.619Z,101783.39
2017-10-26T08:48:25.159Z,101785.32
2017-10-26T08:50:52.703Z,101789.04
2017-10-26T08:53:20.880Z,101787.18
2017-10-26T08:55:48.409Z,101775.97
2017-10-26T08:58:15.945Z,101777.73
2017-10-26T09:00:43.508Z,101774.84
2017-10-26T09:03:11.993Z,101786.56
2017-10-26T09:05:39.524Z,101787.52
2017-10-26T09:08:07.058Z,101782.59
2017-10-26T09:10:35.377Z,101798.11
2017-10-26T09:13:02.901Z,101798.22
2017-10-26T09:15:30.437Z,101789.33
2017-10-26T09:17:58.780Z,101794.91
2017-10-26T09:20:26.321Z,101802.24
2017-10-26T09:22:53.853Z,101804.16
2017-10-26T09:25:21.376Z,101789.72
2017-10-26T09:27:48.905Z,101788.37
2017-10-26T09:30:17.929Z,101794.86
2017-10-26T09:32:45.460Z,101794.78
2017-10-26T09:35:12.991Z,101794.56
2017-10-26T09:37:40.524Z,101793.37
2017-10-26T09:40:08.064Z,101795.29
2017-10-26T09:42:35.600Z,101783.22
2017-10-26T09:45:03.128Z,101782.96
2017-10-26T09:47:31.657Z,101777.14
2017-10-26T09:49:59.297Z,101786.45
2017-10-26T09:52:26.894Z,101774.33
2017-10-26T09:54:54.468Z,101774.80
2017-10-26T09:57:22.012Z,101777.42
2017-10-26T09:59:49.544Z,101775.94
2017-10-26T10:02:17.774Z,101766.38
2017-10-26T10:04:45.349Z,101761.75
2017-10-26T10:07:12.879Z,101771.98
2017-10-26T10:09:40.410Z,101772.37
2017-10-26T10:12:07.951Z,101776.28
2017-10-26T10:14:35.531Z,101781.03
2017-10-26T10:17:03.066Z,101780.66
2017-10-26T10:19:31.432Z,101786.63
2017-10-26T10:21:59.487Z,101789.27
2017-10-26T10:24:27.021Z,101782.55
2017-10-26T10:26:54.591Z,101779.22
2017-10-26T10:29:22.127Z,101766.35
2017-10-26T10:31:49.686Z,101767.19
2017-10-26T10:34:17.912Z,101764.39
2017-10-26T10:36:45.453Z,101761.80
2017-10-26T10:39:13.879Z,101763.84
2017-10-26T10:41:41.457Z,101767.02
2017-10-26T10:44:08.999Z,101763.52
2017-10-26T10:46:36.529Z,101754.95
2017-10-26T10:49:04.092Z,101753.56
2017-10-26T10:51:31.634Z,101744.67
2017-10-26T10:53:59.173Z,101740.31
2017-10-26T10:56:26.700Z,101738.63
2017-10-26T10:58:54.231Z,101726.25
2017-10-26T11:01:21.768Z,101726.67
2017-10-26T11:03:49.847Z,101733.25
2017-10-26T11:06:17.384Z,101728.59
2017-10-26T11:08:44.918Z,101718.97
2017-10-26T11:11:12.461Z,101722.20
2017-10-26T11:13:39.997Z,101718.59
2017-10-26T11:16:07.528Z,101714.87
2017-10-26T11:18:35.069Z,101716.86
2017-10-26T11:21:02.614Z,101708.03
2017-10-26T11:23:30.149Z,101705.09
2017-10-26T11:25:57.683Z,101702.35
2017-10-26T11:28:25.214Z,101701.48
2017-10-26T11:30:52.788Z,101701.41
2017-10-26T11:33:21.238Z,101693.93
2017-10-26T11:35:50.094Z,101713.70
2017-10-26T11:38:18.439Z,101703.72
2017-10-26T11:40:46.699Z,101702.70
2017-10-26T11:43:14.232Z,101694.57
2017-10-26T11:45:42.490Z,101697.48
2017-10-26T11:48:10.814Z,101699.70
2017-10-26T11:50:39.701Z,101683.14
2017-10-26T11:53:08.009Z,101669.34
2017-10-26T11:55:35.568Z,101674.39
2017-10-26T11:58:03.099Z,101673.83
2017-10-26T12:00:30.630Z,101679.14
2017-10-26T12:02:58.170Z,101671.78
2017-10-26T12:05:26.596Z,101670.41
2017-10-26T12:07:54.166Z,101666.02
2017-10-26T12:10:22.490Z,101671.64
2017-10-26T12:12:50.793Z,101667.15
2017-10-26T12:15:18.635Z,101663.01
2017-10-26T12:17:46.173Z,101662.02
2017-10-26T12:20:13.700Z,101658.83
2017-10-26T12:22:41.247Z,101651.67
2017-10-26T12:25:09.478Z,101656.17
2017-10-26T12:27:37.781Z,101647.07
2017-10-26T12:30:05.350Z,101648.97
2017-10-26T12:32:32.910Z,101640.97
2017-10-26T12:35:01.337Z,101633.71
2017-10-26T12:37:28.866Z,101632.30
2017-10-26T12:39:56.391Z,101639.03
2017-10-26T12:42:23.956Z,101639.28
2017-10-26T12:44:51.485Z,101627.91
2017-10-26T12:47:19.655Z,101631.91
2017-10-26T12:49:48.800Z,101629.83
2017-10-26T12:52:16.345Z,101619.79
2017-10-26T12:54:43.880Z,101627.67
2017-10-26T12:57:11.420Z,101627.20
2017-10-26T12:59:39.869Z,101621.37
2017-10-26T13:02:07.435Z,101615.05
2017-10-26T13:04:35.024Z,101604.88
2017-10-26T13:07:02.569Z,101604.77
2017-10-26T13:09:30.109Z,101602.65
2017-10-26T13:11:57.643Z,101593.52
2017-10-26T13:14:25.201Z,101587.43
2017-10-26T13:16:52.729Z,101578.09
2017-10-26T13:19:20.259Z,101567.07
2017-10-26T13:21:48.662Z,101555.80
2017-10-26T13:24:16.190Z,101555.14
2017-10-26T13:26:44.643Z,101564.43
2017-10-26T13:29:12.178Z,101565.75
2017-10-26T13:31:39.709Z,101559.11
2017-10-26T13:34:07.246Z,101562.13
2017-10-26T13:36:35.477Z,101567.12
2017-10-26T13:39:03.070Z,101565.66
2017-10-26T13:41:30.604Z,101573.77
2017-10-26T13:43:58.201Z,101575.84
2017-10-26T13:46:25.728Z,101572.81
2017-10-26T13:48:53.261Z,101571.11
2017-10-26T13:51:20.789Z,101566.31
2017-10-26T13:53:48.657Z,101564.91
2017-10-26T13:56:16.187Z,101569.33
2017-10-26T13:58:43.748Z,101567.63
2017-10-26T14:01:11.277Z,101561.50
2017-10-26T14:03:38.807Z,101566.64
2017-10-26T14:06:06.337Z,101557.92
2017-10-26T14:08:33.865Z,101560.56
2017-10-26T14:11:01.404Z,101561.60
2017-10-26T14:13:28.939Z,101565.47
2017-10-26T14:15:56.469Z,101558.17
2017-10-26T14:18:24.042Z,101566.55
2017-10-26T14:20:51.585Z,101559.53
2017-10-26T14:23:19.129Z,101564.86
2017-10-26T14:25:46.696Z,101555.68
2017-10-26T14:28:14.236Z,101557.74
2017-10-26T14:30:42.728Z,101565.00
2017-10-26T14:33:10.256Z,101564.61
2017-10-26T14:35:38.259Z,101568.92
2017-10-26T14:38:06.024Z,101578.63
2017-10-26T14:40:33.601Z,101579.00
2017-10-26T14:43:01.136Z,101581.14
2017-10-26T14:45:28.668Z,101584.94
2017-10-26T14:47:56.206Z,101577.14
2017-10-26T14:50:23.744Z,101575.75
2017-10-26T14:52:51.289Z,101568.61
2017-10-26T14:55:18.828Z,101563.78
2017-10-26T14:57:46.359Z,101565.78
2017-10-26T15:00:13.911Z,101566.68
2017-10-26T15:02:41.479Z,101559.92
2017-10-26T15:05:09.730Z,101551.57
2017-10-26T15:07:38.964Z,101534.33
2017-10-26T15:10:07.208Z,101534.72
2017-10-26T15:12:34.785Z,101529.94
2017-10-26T15:15:02.334Z,101529.94
2017-10-26T15:17:29.881Z,101525.67
2017-10-26T15:19:57.417Z,101525.08
2017-10-26T15:22:25.650Z,101529.16
2017-10-26T15:24:54.115Z,101525.02
2017-10-26T15:27:21.655Z,101513.22
2017-10-26T15:29:50.107Z,101510.36
2017-10-26T15:32:18.566Z,101501.44
2017-10-26T15:34:46.887Z,101505.12
2017-10-26T15:37:14.481Z,101504.33
2017-10-26T15:39:42.980Z,101500.36
2017-10-26T15:42:11.572Z,101497.30
2017-10-26T15:44:39.912Z,101497.35
2017-10-26T15:47:07.641Z,101497.00
2017-10-26T15:49:36.084Z,101488.50
2017-10-26T15:52:03.665Z,101486.69
2017-10-26T15:54:31.209Z,101486.31
2017-10-26T15:56:58.749Z,101478.59
2017-10-26T15:59:26.318Z,101495.56
2017-10-26T16:01:53.856Z,101487.87
2017-10-26T16:04:21.395Z,101484.52
2017-10-26T16:06:48.932Z,101486.48
2017-10-26T16:09:16.511Z,101485.16
2017-10-26T16:11:44.047Z,101490.50
2017-10-26T16:14:11.648Z,101499.58
2017-10-26T16:16:39.189Z,101495.50
2017-10-26T16:19:07.648Z,101501.48
2017-10-26T16:21:35.931Z,101503.22
2017-10-26T16:24:03.510Z,101494.81
2017-10-26T16:26:31.845Z,101491.64
2017-10-26T16:28:59.429Z,101493.92
2017-10-26T16:31:27.800Z,101495.08
2017-10-26T16:33:55.340Z,101481.56
2017-10-26T16:36:22.881Z,101474.21
2017-10-26T16:38:50.448Z,101467.09
2017-10-26T16:41:18.004Z,101464.16
2017-10-26T16:43:45.585Z,101468.11
2017-10-26T16:46:14.000Z,101463.86
2017-10-26T16:48:42.466Z,101475.27
2017-10-26T16:51:10.836Z,101468.08
2017-10-26T16:53:38.377Z,101466.29
2017-10-26T16:56:05.980Z,101463.95
2017-10-26T16:58:34.336Z,101473.24
2017-10-26T17:01:01.922Z,101470.69
2017-10-26T17:03:29.464Z,101459.05
2017-10-26T17:05:57.010Z,101468.69
2017-10-26T17:08:24.613Z,101464.58
2017-10-26T17:10:52.145Z,101466.32
2017-10-26T17:13:19.788Z,101461.03
2017-10-26T17:15:47.342Z,101461.33
2017-10-26T17:18:14.879Z,101456.27
2017-10-26T17:20:42.419Z,101451.02
2017-10-26T17:23:09.961Z,101459.23
2017-10-26T17:25:39.276Z,101460.81
2017-10-26T17:28:07.481Z,101459.58
2017-10-26T17:30:35.061Z,101457.70
2017-10-26T17:33:03.330Z,101460.89
2017-10-26T17:35:31.648Z,101460.77
2017-10-26T17:37:59.241Z,101455.95
2017-10-26T17:40:27.790Z,101453.45
2017-10-26T17:42:55.337Z,101445.19
2017-10-26T17:45:22.912Z,101452.30
2017-10-26T17:47:51.298Z,101438.73
2017-10-26T17:50:19.710Z,101449.03
2017-10-26T17:52:48.132Z,101439.81
2017-10-26T17:55:15.673Z,101442.80
2017-10-26T17:57:44.025Z,101442.22
2017-10-26T18:00:11.572Z,101431.93
2017-10-26T18:02:39.118Z,101425.95
2017-10-26T18:05:07.950Z,101427.31
2017-10-26T18:07:35.508Z,101434.53
2017-10-26T18:10:03.236Z,101445.45
2017-10-26T18:12:30.860Z,101447.06
2017-10-26T18:14:58.437Z,101456.47
2017-10-26T18:17:25.988Z,101457.95
2017-10-26T18:19:53.932Z,101462.20
2017-10-26T18:22:22.291Z,101460.84
2017-10-26T18:24:49.829Z,101459.99
2017-10-26T18:27:17.368Z,101456.94
2017-10-26T18:29:44.909Z,101456.56
2017-10-26T18:32:12.451Z,101455.65
2017-10-26T18:34:40.720Z,101448.41
2017-10-26T18:37:08.253Z,101448.20
2017-10-26T18:39:35.802Z,101447.14
2017-10-26T18:42:03.374Z,101432.38
2017-10-26T18:44:32.241Z,101434.24
2017-10-26T18:46:59.838Z,101445.28
2017-10-26T18:49:27.454Z,101440.89
2017-10-26T18:51:55.014Z,101439.89
2017-10-26T18:54:23.418Z,101438.48
2017-10-26T18:56:50.971Z,101440.91
2017-10-26T18:59:19.457Z,101440.66
2017-10-26T19:01:46.993Z,101444.78
2017-10-26T19:04:15.372Z,101439.49
2017-10-26T19:06:46.213Z,101436.22
2017-10-26T19:09:14.804Z,101439.27
2017-10-26T19:11:43.147Z,101440.71
2017-10-26T19:14:10.733Z,101435.78
2017-10-26T19:16:39.144Z,101444.05
2017-10-26T19:19:06.728Z,101443.37
2017-10-26T19:21:35.185Z,101442.65
2017-10-26T19:24:02.793Z,101432.11
2017-10-26T19:26:30.950Z,101441.86
2017-10-26T19:28:59.268Z,101440.27
2017-10-26T19:31:27.725Z,101426.70
2017-10-26T19:33:56.105Z,101437.14
2017-10-26T19:36:24.464Z,101442.73
2017-10-26T19:38:53.413Z,101435.65
2017-10-26T19:41:20.970Z,101439.25
2017-10-26T19:43:48.525Z,101431.21
2017-10-26T19:46:16.106Z,101427.73
2017-10-26T19:48:44.365Z,101438.97
2017-10-26T19:51:11.938Z,101432.52
2017-10-26T19:53:41.213Z,101426.09
2017-10-26T19:56:08.798Z,101425.63
2017-10-26T19:58:36.824Z,101410.45
2017-10-26T20:01:05.414Z,101414.33
2017-10-26T20:03:32.952Z,101414.66
2017-10-26T20:06:00.490Z,101411.32
2017-10-26T20:08:28.736Z,101411.48
2017-10-26T20:10:56.332Z,101406.56
2017-10-26T20:13:23.879Z,101405.63
2017-10-26T20:15:51.486Z,101402.19
2017-10-26T20:18:19.733Z,101395.89
2017-10-26T20:20:47.388Z,101396.91
2017-10-26T20:23:14.942Z,101397.84
2017-10-26T20:25:42.485Z,101386.87
2017-10-26T20:28:10.045Z,101393.31
2017-10-26T20:30:37.617Z,101390.59
2017-10-26T20:33:06.000Z,101385.26
2017-10-26T20:35:34.595Z,101390.47
2017-10-26T20:38:02.135Z,101386.41
2017-10-26T20:40:31.585Z,101384.41
2017-10-26T20:42:59.204Z,101394.19
2017-10-26T20:45:26.852Z,101384.83
2017-10-26T20:47:55.321Z,101391.95
2017-10-26T20:50:28.406Z,101388.90
2017-10-26T20:53:01.670Z,101387.50
2017-10-26T20:55:35.061Z,101387.03
2017-10-26T20:58:08.275Z,101395.46
2017-10-26T21:00:42.110Z,101396.06
2017-10-26T21:03:15.234Z,101375.20
2017-10-26T21:09:01.304Z,101378.05
2017-10-26T21:11:35.567Z,101385.84
2017-10-26T21:14:08.843Z,101375.72
2017-10-26T21:16:38.406Z,101380.80
2017-10-26T21:19:07.141Z,101375.97
2017-10-26T21:21:35.031Z,101380.16
2017-10-26T21:24:02.735Z,101385.80
2017-10-26T21:26:30.357Z,101380.58
2017-10-26T21:28:59.055Z,101378.68
2017-10-26T21:31:48.261Z,101381.55
2017-10-26T21:34:16.201Z,101371.84
2017-10-26T21:36:43.816Z,101374.34
2017-10-26T21:39:11.357Z,101374.14
2017-10-26T21:41:38.934Z,101361.93
2017-10-26T21:44:06.523Z,101356.26
2017-10-26T21:46:34.067Z,101344.19
2017-10-26T21:49:01.658Z,101342.80
2017-10-26T21:51:29.496Z,101336.02
2017-10-26T21:53:57.078Z,101328.86
2017-10-26T21:56:24.623Z,101320.77
2017-10-26T21:58:52.173Z,101318.20
2017-10-26T22:01:19.721Z,101317.30
2017-10-26T22:03:48.027Z,101314.38
2017-10-26T22:06:15.567Z,101306.80
2017-10-26T22:08:43.132Z,101314.58
2017-10-26T22:11:10.668Z,101310.98
2017-10-26T22:13:38.216Z,101319.08
2017-10-26T22:16:06.368Z,101318.87
2017-10-26T22:18:33.925Z,101316.06
2017-10-26T22:21:02.288Z,101313.95
2017-10-26T22:23:30.621Z,101313.57
2017-10-26T22:25:59.112Z,101310.17
2017-10-26T22:28:27.437Z,101300.56
2017-10-26T22:30:54.996Z,101295.66
2017-10-26T22:33:22.623Z,101301.47
2017-10-26T22:35:50.989Z,101297.06
2017-10-26T22:38:18.568Z,101296.12
2017-10-26T22:40:46.104Z,101298.28
2017-10-26T22:43:13.677Z,101292.77
2017-10-26T22:45:41.571Z,101292.48
2017-10-26T22:48:09.156Z,101292.13
2017-10-26T22:50:36.691Z,101294.09
2017-10-26T22:53:05.027Z,101289.00
2017-10-26T22:55:32.565Z,101281.73
2017-10-26T22:58:00.096Z,101277.78
2017-10-26T23:00:27.663Z,101270.87
2017-10-26T23:02:55.215Z,101275.12
2017-10-26T23:05:22.796Z,101279.48
2017-10-26T23:07:50.335Z,101275.20
2017-10-26T23:10:17.871Z,101272.91
2017-10-26T23:12:46.220Z,101265.13
2017-10-26T23:15:13.760Z,101267.95
2017-10-26T23:17:41.553Z,101263.64
2017-10-26T23:20:09.135Z,101250.94
2017-10-26T23:22:37.187Z,101254.84
2017-10-26T23:25:04.772Z,101245.94
2017-10-26T23:27:32.315Z,101240.60
2017-10-26T23:29:59.854Z,101232.47
2017-10-26T23:32:27.388Z,101230.95
2017-10-26T23:34:55.301Z,101234.09
2017-10-26T23:37:22.840Z,101232.02
2017-10-26T23:39:50.421Z,101228.62
2017-10-26T23:42:18.869Z,101229.42
2017-10-26T23:44:47.150Z,101223.80
2017-10-26T23:47:14.726Z,101224.34
2017-10-26T23:49:42.270Z,101222.19
2017-10-26T23:52:09.801Z,101223.89
2017-10-26T23:54:37.346Z,101220.45
2017-10-26T23:57:04.924Z,101231.77
2017-10-26T23:59:32.456Z,101225.12
